臺東航空站 - ATIS

METAR RCFN 181130Z 36007KT 310V040 9999 FEW018 BKN045 BKN060 16/15 Q1021 NOSIG RMK A3015(L)=

站台狀態:Online
最後更新:2020-01-18 19:30:02